KTTN

Trenton Mercer Airport

Trenton, New Jersey, USA
KTTN 201135Z 2012/2112 VRB04KT P6SM SCT250 FM201500 15008KT P6SM FEW050 FM210300 13004KT P6SM BKN250 FM211000 09006KT P6SM BKN120
Issued Valid From Valid To
Jul-20 @ 11:35 UTC
(3 hours ago)
Jul-20 @ 12:00 UTC
(2 hours ago)
Jul-21 @ 12:00 UTC
(in 22 hours)
Jul-20 @ 12:00 to Jul-20 @ 15:00
KTTN 201135Z 2012/2112 VRB04KT P6SM SCT250
Wind Visibility Clouds
Variable at 4 knots Greater than 6 miles
  • Scattered at 25,000' AGL
From Jul-20 @ 15:00 to Jul-21 @ 03:00
FM201500 15008KT P6SM FEW050
Wind Visibility Clouds
150° at 8 knots Greater than 6 miles
  • Few at 5,000' AGL
From Jul-21 @ 03:00 to Jul-21 @ 10:00
FM210300 13004KT P6SM BKN250
Wind Visibility Clouds
130° at 4 knots Greater than 6 miles
  • Broken at 25,000' AGL
From Jul-21 @ 10:00 to Jul-21 @ 12:00
FM211000 09006KT P6SM BKN120
Wind Visibility Clouds
90° at 6 knots Greater than 6 miles
  • Broken at 12,000' AGL
KTTN 201135Z 2012/2112 VRB04KT P6SM SCT250 FM201500 15008KT P6SM FEW050 FM210300 13004KT P6SM BKN250 FM211000 09006KT P6SM BKN120
Issued Jul-20 @ 11:35 UTC
(3 hours ago)
Valid From Jul-20 @ 12:00 UTC
(2 hours ago)
Valid To Jul-21 @ 12:00 UTC
(in 22 hours)
Jul-20 @ 12:00 - Jul-20 @ 15:00
Wind Visibility
Variable at 4 knots Greater than 6 miles
Clouds
  • Scattered at 25,000' AGL
From Jul-20 @ 15:00 - Jul-21 @ 03:00
Wind Visibility
150° at 8 knots Greater than 6 miles
Clouds
  • Few at 5,000' AGL
From Jul-21 @ 03:00 - Jul-21 @ 10:00
Wind Visibility
130° at 4 knots Greater than 6 miles
Clouds
  • Broken at 25,000' AGL
From Jul-21 @ 10:00 - Jul-21 @ 12:00
Wind Visibility
90° at 6 knots Greater than 6 miles
Clouds
  • Broken at 12,000' AGL